sensor_id;sensor_type;location;lat;lon;timestamp;temperature;humidity
40340;DHT22;26044;50.864;20.658;2023-03-04T00:00:15;0.60;99.90
40340;DHT22;26044;50.864;20.658;2023-03-04T00:02:42;0.60;99.90
40340;DHT22;26044;50.864;20.658;2023-03-04T00:05:09;0.60;99.90
40340;DHT22;26044;50.864;20.658;2023-03-04T00:07:35;0.70;99.90
40340;DHT22;26044;50.864;20.658;2023-03-04T00:10:03;0.60;99.90
40340;DHT22;26044;50.864;20.658;2023-03-04T00:12:32;0.60;99.90
40340;DHT22;26044;50.864;20.658;2023-03-04T00:14:59;0.60;99.90
40340;DHT22;26044;50.864;20.658;2023-03-04T00:17:26;0.60;99.90
40340;DHT22;26044;50.864;20.658;2023-03-04T00:19:55;0.60;99.90
40340;DHT22;26044;50.864;20.658;2023-03-04T00:22:22;0.60;99.90
40340;DHT22;26044;50.864;20.658;2023-03-04T00:24:49;0.60;99.90
40340;DHT22;26044;50.864;20.658;2023-03-04T00:27:18;0.60;99.90
40340;DHT22;26044;50.864;20.658;2023-03-04T00:29:45;0.60;99.90
40340;DHT22;26044;50.864;20.658;2023-03-04T00:32:12;0.60;99.90
40340;DHT22;26044;50.864;20.658;2023-03-04T00:34:39;0.60;99.90
40340;DHT22;26044;50.864;20.658;2023-03-04T00:37:06;0.60;99.90
40340;DHT22;26044;50.864;20.658;2023-03-04T00:39:34;0.60;99.90
40340;DHT22;26044;50.864;20.658;2023-03-04T00:42:01;0.60;99.90
40340;DHT22;26044;50.864;20.658;2023-03-04T00:44:28;0.60;99.90
40340;DHT22;26044;50.864;20.658;2023-03-04T00:46:55;0.60;99.90
40340;DHT22;26044;50.864;20.658;2023-03-04T00:49:22;0.60;99.90
40340;DHT22;26044;50.864;20.658;2023-03-04T00:51:50;0.60;99.90
40340;DHT22;26044;50.864;20.658;2023-03-04T00:54:18;0.50;99.90
40340;DHT22;26044;50.864;20.658;2023-03-04T00:56:44;0.50;99.90
40340;DHT22;26044;50.864;20.658;2023-03-04T00:59:14;0.50;99.90
40340;DHT22;26044;50.864;20.658;2023-03-04T01:01:41;0.50;99.90
40340;DHT22;26044;50.864;20.658;2023-03-04T01:04:08;0.50;99.90
40340;DHT22;26044;50.864;20.658;2023-03-04T01:06:34;0.50;99.90
40340;DHT22;26044;50.864;20.658;2023-03-04T01:09:02;0.50;99.90
40340;DHT22;26044;50.864;20.658;2023-03-04T01:11:28;0.50;99.90
40340;DHT22;26044;50.864;20.658;2023-03-04T01:13:55;0.50;99.90
40340;DHT22;26044;50.864;20.658;2023-03-04T01:16:22;0.40;99.90
40340;DHT22;26044;50.864;20.658;2023-03-04T01:18:51;0.50;99.90
40340;DHT22;26044;50.864;20.658;2023-03-04T01:21:17;0.50;99.90
40340;DHT22;26044;50.864;20.658;2023-03-04T01:23:44;0.50;99.90
40340;DHT22;26044;50.864;20.658;2023-03-04T01:26:12;0.50;99.90
40340;DHT22;26044;50.864;20.658;2023-03-04T01:28:38;0.50;99.90
40340;DHT22;26044;50.864;20.658;2023-03-04T01:31:05;0.50;99.90
40340;DHT22;26044;50.864;20.658;2023-03-04T01:33:33;0.40;99.90
40340;DHT22;26044;50.864;20.658;2023-03-04T01:36:00;0.40;99.90
40340;DHT22;26044;50.864;20.658;2023-03-04T01:38:28;0.40;99.90
40340;DHT22;26044;50.864;20.658;2023-03-04T01:40:56;0.40;99.90
40340;DHT22;26044;50.864;20.658;2023-03-04T01:43:26;0.40;99.90
40340;DHT22;26044;50.864;20.658;2023-03-04T01:45:54;0.40;99.90
40340;DHT22;26044;50.864;20.658;2023-03-04T01:48:27;0.40;99.90
40340;DHT22;26044;50.864;20.658;2023-03-04T01:50:56;0.40;99.90
40340;DHT22;26044;50.864;20.658;2023-03-04T01:53:27;0.40;99.90
40340;DHT22;26044;50.864;20.658;2023-03-04T01:55:57;0.50;99.90
40340;DHT22;26044;50.864;20.658;2023-03-04T01:58:29;0.40;99.90
40340;DHT22;26044;50.864;20.658;2023-03-04T02:00:57;0.50;99.90
40340;DHT22;26044;50.864;20.658;2023-03-04T02:03:24;0.50;99.90
40340;DHT22;26044;50.864;20.658;2023-03-04T02:05:52;0.50;99.90
40340;DHT22;26044;50.864;20.658;2023-03-04T02:08:22;0.50;99.90
40340;DHT22;26044;50.864;20.658;2023-03-04T02:10:50;0.50;99.90
40340;DHT22;26044;50.864;20.658;2023-03-04T02:13:17;0.60;99.90
40340;DHT22;26044;50.864;20.658;2023-03-04T02:15:45;0.50;99.90
40340;DHT22;26044;50.864;20.658;2023-03-04T02:18:19;0.40;99.90
40340;DHT22;26044;50.864;20.658;2023-03-04T02:26:27;0.50;99.90
40340;DHT22;26044;50.864;20.658;2023-03-04T02:28:56;0.50;99.90
40340;DHT22;26044;50.864;20.658;2023-03-04T02:33:56;0.40;99.90
40340;DHT22;26044;50.864;20.658;2023-03-04T02:36:28;0.40;99.90
40340;DHT22;26044;50.864;20.658;2023-03-04T02:39:02;0.40;99.90
40340;DHT22;26044;50.864;20.658;2023-03-04T02:41:30;0.40;99.90
40340;DHT22;26044;50.864;20.658;2023-03-04T02:43:59;0.40;99.90
40340;DHT22;26044;50.864;20.658;2023-03-04T02:46:26;0.40;99.90
40340;DHT22;26044;50.864;20.658;2023-03-04T02:48:53;0.40;99.90
40340;DHT22;26044;50.864;20.658;2023-03-04T02:51:20;0.40;99.90
40340;DHT22;26044;50.864;20.658;2023-03-04T02:53:47;0.40;99.90
40340;DHT22;26044;50.864;20.658;2023-03-04T02:56:14;0.30;99.90
40340;DHT22;26044;50.864;20.658;2023-03-04T02:58:41;0.40;99.90
40340;DHT22;26044;50.864;20.658;2023-03-04T03:01:08;0.40;99.90
40340;DHT22;26044;50.864;20.658;2023-03-04T03:03:37;0.40;99.90
40340;DHT22;26044;50.864;20.658;2023-03-04T03:06:05;0.40;99.90
40340;DHT22;26044;50.864;20.658;2023-03-04T03:08:32;0.40;99.90
40340;DHT22;26044;50.864;20.658;2023-03-04T03:10:59;0.50;99.90
40340;DHT22;26044;50.864;20.658;2023-03-04T03:13:27;0.40;99.90
40340;DHT22;26044;50.864;20.658;2023-03-04T03:15:54;0.40;99.90
40340;DHT22;26044;50.864;20.658;2023-03-04T03:18:21;0.40;99.90
40340;DHT22;26044;50.864;20.658;2023-03-04T03:20:48;0.40;99.90
40340;DHT22;26044;50.864;20.658;2023-03-04T03:23:16;0.40;99.90
40340;DHT22;26044;50.864;20.658;2023-03-04T03:25:43;0.40;99.90
40340;DHT22;26044;50.864;20.658;2023-03-04T03:28:10;0.40;99.90
40340;DHT22;26044;50.864;20.658;2023-03-04T03:30:37;0.40;99.90
40340;DHT22;26044;50.864;20.658;2023-03-04T03:33:06;0.40;99.90
40340;DHT22;26044;50.864;20.658;2023-03-04T03:35:33;0.40;99.90
40340;DHT22;26044;50.864;20.658;2023-03-04T03:38:00;0.40;99.90
40340;DHT22;26044;50.864;20.658;2023-03-04T03:40:29;0.40;99.90
40340;DHT22;26044;50.864;20.658;2023-03-04T03:42:56;0.40;99.90
40340;DHT22;26044;50.864;20.658;2023-03-04T03:45:23;0.40;99.90
40340;DHT22;26044;50.864;20.658;2023-03-04T03:47:51;0.40;99.90
40340;DHT22;26044;50.864;20.658;2023-03-04T03:50:18;0.50;99.90
40340;DHT22;26044;50.864;20.658;2023-03-04T03:52:45;0.40;99.90
40340;DHT22;26044;50.864;20.658;2023-03-04T03:55:12;0.40;99.90
40340;DHT22;26044;50.864;20.658;2023-03-04T03:57:39;0.40;99.90
40340;DHT22;26044;50.864;20.658;2023-03-04T04:00:09;0.50;99.90
40340;DHT22;26044;50.864;20.658;2023-03-04T04:02:54;0.40;99.90
40340;DHT22;26044;50.864;20.658;2023-03-04T04:05:22;0.40;99.90
40340;DHT22;26044;50.864;20.658;2023-03-04T04:07:49;0.30;99.90
40340;DHT22;26044;50.864;20.658;2023-03-04T04:10:19;0.30;99.90
40340;DHT22;26044;50.864;20.658;2023-03-04T04:12:47;0.30;99.90
40340;DHT22;26044;50.864;20.658;2023-03-04T04:15:14;0.30;99.90
40340;DHT22;26044;50.864;20.658;2023-03-04T04:17:41;0.30;99.90
40340;DHT22;26044;50.864;20.658;2023-03-04T04:20:08;0.30;99.90
40340;DHT22;26044;50.864;20.658;2023-03-04T04:22:37;0.30;99.90
40340;DHT22;26044;50.864;20.658;2023-03-04T04:25:04;0.30;99.90
40340;DHT22;26044;50.864;20.658;2023-03-04T04:27:31;0.30;99.90
40340;DHT22;26044;50.864;20.658;2023-03-04T04:29:58;0.30;99.90
40340;DHT22;26044;50.864;20.658;2023-03-04T04:32:25;0.30;99.90
40340;DHT22;26044;50.864;20.658;2023-03-04T04:34:52;0.30;99.90
40340;DHT22;26044;50.864;20.658;2023-03-04T04:37:19;0.30;99.90
40340;DHT22;26044;50.864;20.658;2023-03-04T04:39:49;0.30;99.90
40340;DHT22;26044;50.864;20.658;2023-03-04T04:42:17;0.20;99.90
40340;DHT22;26044;50.864;20.658;2023-03-04T04:44:44;0.20;99.90
40340;DHT22;26044;50.864;20.658;2023-03-04T04:47:11;0.20;99.90
40340;DHT22;26044;50.864;20.658;2023-03-04T04:49:39;0.20;99.90
40340;DHT22;26044;50.864;20.658;2023-03-04T04:52:06;0.20;99.90
40340;DHT22;26044;50.864;20.658;2023-03-04T04:54:33;0.20;99.90
40340;DHT22;26044;50.864;20.658;2023-03-04T04:57:00;0.20;99.90
40340;DHT22;26044;50.864;20.658;2023-03-04T04:59:27;0.20;99.90
40340;DHT22;26044;50.864;20.658;2023-03-04T05:01:54;0.20;99.90
40340;DHT22;26044;50.864;20.658;2023-03-04T05:04:20;0.20;99.90
40340;DHT22;26044;50.864;20.658;2023-03-04T05:06:47;0.20;99.90
40340;DHT22;26044;50.864;20.658;2023-03-04T05:09:14;0.20;99.90
40340;DHT22;26044;50.864;20.658;2023-03-04T05:11:41;0.30;99.90
40340;DHT22;26044;50.864;20.658;2023-03-04T05:14:08;0.30;99.90
40340;DHT22;26044;50.864;20.658;2023-03-04T05:16:35;0.20;99.90
40340;DHT22;26044;50.864;20.658;2023-03-04T05:19:01;0.30;99.90
40340;DHT22;26044;50.864;20.658;2023-03-04T05:21:28;0.30;99.90
40340;DHT22;26044;50.864;20.658;2023-03-04T05:23:55;0.20;99.90
40340;DHT22;26044;50.864;20.658;2023-03-04T05:26:23;0.30;99.90
40340;DHT22;26044;50.864;20.658;2023-03-04T05:28:50;0.30;99.90
40340;DHT22;26044;50.864;20.658;2023-03-04T05:31:20;0.30;99.90
40340;DHT22;26044;50.864;20.658;2023-03-04T05:33:47;0.30;99.90
40340;DHT22;26044;50.864;20.658;2023-03-04T05:36:14;0.30;99.90
40340;DHT22;26044;50.864;20.658;2023-03-04T05:38:41;0.30;99.90
40340;DHT22;26044;50.864;20.658;2023-03-04T05:41:09;0.30;99.90
40340;DHT22;26044;50.864;20.658;2023-03-04T05:43:37;0.30;99.90
40340;DHT22;26044;50.864;20.658;2023-03-04T05:46:13;0.30;99.90
40340;DHT22;26044;50.864;20.658;2023-03-04T05:48:41;0.10;99.90
40340;DHT22;26044;50.864;20.658;2023-03-04T05:51:09;0.30;99.90
40340;DHT22;26044;50.864;20.658;2023-03-04T05:53:36;0.30;99.90
40340;DHT22;26044;50.864;20.658;2023-03-04T05:56:13;0.30;99.90
40340;DHT22;26044;50.864;20.658;2023-03-04T05:58:41;0.30;99.90
40340;DHT22;26044;50.864;20.658;2023-03-04T06:01:10;0.30;99.90
40340;DHT22;26044;50.864;20.658;2023-03-04T06:03:37;0.30;99.90
40340;DHT22;26044;50.864;20.658;2023-03-04T06:06:06;0.40;99.90
40340;DHT22;26044;50.864;20.658;2023-03-04T06:08:33;0.40;99.90
40340;DHT22;26044;50.864;20.658;2023-03-04T06:11:00;0.40;99.90
40340;DHT22;26044;50.864;20.658;2023-03-04T06:13:29;0.40;99.90
40340;DHT22;26044;50.864;20.658;2023-03-04T06:15:58;0.30;99.90
40340;DHT22;26044;50.864;20.658;2023-03-04T06:18:27;0.40;99.90
40340;DHT22;26044;50.864;20.658;2023-03-04T06:20:59;0.40;99.90
40340;DHT22;26044;50.864;20.658;2023-03-04T06:23:27;0.40;99.90
40340;DHT22;26044;50.864;20.658;2023-03-04T06:25:56;0.40;99.90
40340;DHT22;26044;50.864;20.658;2023-03-04T06:28:24;0.40;99.90
40340;DHT22;26044;50.864;20.658;2023-03-04T06:30:51;0.40;99.90
40340;DHT22;26044;50.864;20.658;2023-03-04T06:33:19;0.50;99.90
40340;DHT22;26044;50.864;20.658;2023-03-04T06:35:46;0.50;99.90
40340;DHT22;26044;50.864;20.658;2023-03-04T06:38:13;0.50;99.90
40340;DHT22;26044;50.864;20.658;2023-03-04T06:40:40;0.50;99.90
40340;DHT22;26044;50.864;20.658;2023-03-04T06:43:07;0.50;99.90
40340;DHT22;26044;50.864;20.658;2023-03-04T06:45:34;0.50;99.90
40340;DHT22;26044;50.864;20.658;2023-03-04T06:48:01;0.50;99.90
40340;DHT22;26044;50.864;20.658;2023-03-04T06:50:28;0.50;99.90
40340;DHT22;26044;50.864;20.658;2023-03-04T06:52:56;0.50;99.90
40340;DHT22;26044;50.864;20.658;2023-03-04T06:55:23;0.60;99.90
40340;DHT22;26044;50.864;20.658;2023-03-04T06:57:50;0.60;99.90
40340;DHT22;26044;50.864;20.658;2023-03-04T07:00:17;0.60;99.90
40340;DHT22;26044;50.864;20.658;2023-03-04T07:02:45;0.60;99.90
40340;DHT22;26044;50.864;20.658;2023-03-04T07:05:12;0.60;99.90
40340;DHT22;26044;50.864;20.658;2023-03-04T07:07:38;0.60;99.90
40340;DHT22;26044;50.864;20.658;2023-03-04T07:10:05;0.60;99.90
40340;DHT22;26044;50.864;20.658;2023-03-04T07:12:32;0.60;99.90
40340;DHT22;26044;50.864;20.658;2023-03-04T07:14:59;0.60;99.90
40340;DHT22;26044;50.864;20.658;2023-03-04T07:17:26;0.70;99.90
40340;DHT22;26044;50.864;20.658;2023-03-04T07:19:53;0.70;99.90
40340;DHT22;26044;50.864;20.658;2023-03-04T07:22:20;0.70;99.90
40340;DHT22;26044;50.864;20.658;2023-03-04T07:24:48;0.70;99.90
40340;DHT22;26044;50.864;20.658;2023-03-04T07:27:15;0.70;99.90
40340;DHT22;26044;50.864;20.658;2023-03-04T07:29:42;0.80;99.90
40340;DHT22;26044;50.864;20.658;2023-03-04T07:32:09;0.80;99.90
40340;DHT22;26044;50.864;20.658;2023-03-04T07:34:36;0.80;99.90
40340;DHT22;26044;50.864;20.658;2023-03-04T07:37:03;0.80;99.90
40340;DHT22;26044;50.864;20.658;2023-03-04T07:39:30;0.80;99.90
40340;DHT22;26044;50.864;20.658;2023-03-04T07:41:57;0.80;99.90
40340;DHT22;26044;50.864;20.658;2023-03-04T07:44:23;0.80;99.90
40340;DHT22;26044;50.864;20.658;2023-03-04T07:46:50;0.80;99.90
40340;DHT22;26044;50.864;20.658;2023-03-04T07:49:21;0.90;99.90
40340;DHT22;26044;50.864;20.658;2023-03-04T07:51:49;0.80;99.90
40340;DHT22;26044;50.864;20.658;2023-03-04T07:54:16;0.90;99.90
40340;DHT22;26044;50.864;20.658;2023-03-04T07:56:46;0.90;99.90
40340;DHT22;26044;50.864;20.658;2023-03-04T07:59:12;0.90;99.90
40340;DHT22;26044;50.864;20.658;2023-03-04T08:01:39;1.00;99.90
40340;DHT22;26044;50.864;20.658;2023-03-04T08:04:06;0.90;99.90
40340;DHT22;26044;50.864;20.658;2023-03-04T08:06:34;1.00;99.90
40340;DHT22;26044;50.864;20.658;2023-03-04T08:09:05;1.00;99.90
40340;DHT22;26044;50.864;20.658;2023-03-04T08:11:36;1.00;99.90
40340;DHT22;26044;50.864;20.658;2023-03-04T08:14:04;1.00;99.90
40340;DHT22;26044;50.864;20.658;2023-03-04T08:16:33;1.00;99.90
40340;DHT22;26044;50.864;20.658;2023-03-04T08:19:03;1.00;99.90
40340;DHT22;26044;50.864;20.658;2023-03-04T08:21:30;1.00;99.90
40340;DHT22;26044;50.864;20.658;2023-03-04T08:23:59;1.00;99.90
40340;DHT22;26044;50.864;20.658;2023-03-04T08:26:32;1.00;99.90
40340;DHT22;26044;50.864;20.658;2023-03-04T08:29:08;1.10;99.90
40340;DHT22;26044;50.864;20.658;2023-03-04T08:31:35;1.10;99.90
40340;DHT22;26044;50.864;20.658;2023-03-04T08:34:02;1.10;99.90
40340;DHT22;26044;50.864;20.658;2023-03-04T08:36:29;1.10;99.90
40340;DHT22;26044;50.864;20.658;2023-03-04T08:38:56;1.00;99.90
40340;DHT22;26044;50.864;20.658;2023-03-04T08:41:24;1.10;99.90
40340;DHT22;26044;50.864;20.658;2023-03-04T08:43:53;1.10;99.90
40340;DHT22;26044;50.864;20.658;2023-03-04T08:46:20;0.90;99.90
40340;DHT22;26044;50.864;20.658;2023-03-04T08:48:47;1.10;99.90
40340;DHT22;26044;50.864;20.658;2023-03-04T08:51:16;1.10;99.90
40340;DHT22;26044;50.864;20.658;2023-03-04T08:53:43;1.10;99.90
40340;DHT22;26044;50.864;20.658;2023-03-04T08:56:11;1.10;99.90
40340;DHT22;26044;50.864;20.658;2023-03-04T08:58:39;1.10;99.90
40340;DHT22;26044;50.864;20.658;2023-03-04T09:01:11;1.20;99.90
40340;DHT22;26044;50.864;20.658;2023-03-04T09:03:39;1.20;99.90
40340;DHT22;26044;50.864;20.658;2023-03-04T09:06:07;1.30;99.90
40340;DHT22;26044;50.864;20.658;2023-03-04T09:08:35;1.10;99.90
40340;DHT22;26044;50.864;20.658;2023-03-04T09:11:04;1.30;99.90
40340;DHT22;26044;50.864;20.658;2023-03-04T09:13:32;1.20;99.90
40340;DHT22;26044;50.864;20.658;2023-03-04T09:16:01;1.20;99.90
40340;DHT22;26044;50.864;20.658;2023-03-04T09:18:29;1.30;99.90
40340;DHT22;26044;50.864;20.658;2023-03-04T09:20:56;1.20;99.90
40340;DHT22;26044;50.864;20.658;2023-03-04T09:23:22;1.20;99.90
40340;DHT22;26044;50.864;20.658;2023-03-04T09:25:49;1.20;99.90
40340;DHT22;26044;50.864;20.658;2023-03-04T09:28:17;1.30;99.90
40340;DHT22;26044;50.864;20.658;2023-03-04T09:30:45;1.30;99.90
40340;DHT22;26044;50.864;20.658;2023-03-04T09:33:12;1.30;99.90
40340;DHT22;26044;50.864;20.658;2023-03-04T09:35:39;1.30;99.90
40340;DHT22;26044;50.864;20.658;2023-03-04T09:38:06;1.30;99.90
40340;DHT22;26044;50.864;20.658;2023-03-04T09:40:42;1.40;99.90
40340;DHT22;26044;50.864;20.658;2023-03-04T09:43:19;1.30;99.90
40340;DHT22;26044;50.864;20.658;2023-03-04T09:45:52;1.40;99.90
40340;DHT22;26044;50.864;20.658;2023-03-04T09:48:22;1.40;99.90
40340;DHT22;26044;50.864;20.658;2023-03-04T09:51:10;1.40;99.90
40340;DHT22;26044;50.864;20.658;2023-03-04T09:54:05;1.40;99.90
40340;DHT22;26044;50.864;20.658;2023-03-04T09:56:37;1.40;99.90
40340;DHT22;26044;50.864;20.658;2023-03-04T09:59:38;1.40;99.90
40340;DHT22;26044;50.864;20.658;2023-03-04T10:02:21;1.40;99.90
40340;DHT22;26044;50.864;20.658;2023-03-04T10:04:58;1.40;99.90
40340;DHT22;26044;50.864;20.658;2023-03-04T10:07:31;1.40;99.90
40340;DHT22;26044;50.864;20.658;2023-03-04T10:10:13;1.40;99.90
40340;DHT22;26044;50.864;20.658;2023-03-04T10:12:52;1.40;99.90
40340;DHT22;26044;50.864;20.658;2023-03-04T10:22:43;1.50;99.90
40340;DHT22;26044;50.864;20.658;2023-03-04T10:25:43;1.50;99.90
40340;DHT22;26044;50.864;20.658;2023-03-04T10:28:25;1.60;99.90
40340;DHT22;26044;50.864;20.658;2023-03-04T10:33:32;1.60;99.90
40340;DHT22;26044;50.864;20.658;2023-03-04T10:38:33;1.60;99.90
40340;DHT22;26044;50.864;20.658;2023-03-04T10:41:01;1.60;99.90
40340;DHT22;26044;50.864;20.658;2023-03-04T10:43:38;1.60;99.90
40340;DHT22;26044;50.864;20.658;2023-03-04T10:46:05;1.60;99.90
40340;DHT22;26044;50.864;20.658;2023-03-04T10:48:36;1.70;99.90
40340;DHT22;26044;50.864;20.658;2023-03-04T10:51:21;1.70;99.90
40340;DHT22;26044;50.864;20.658;2023-03-04T10:53:51;1.70;99.90
40340;DHT22;26044;50.864;20.658;2023-03-04T10:56:40;1.70;99.90
40340;DHT22;26044;50.864;20.658;2023-03-04T10:59:35;1.70;99.90
40340;DHT22;26044;50.864;20.658;2023-03-04T11:02:28;1.80;99.90
40340;DHT22;26044;50.864;20.658;2023-03-04T11:05:15;1.80;99.90
40340;DHT22;26044;50.864;20.658;2023-03-04T11:07:53;1.80;99.90
40340;DHT22;26044;50.864;20.658;2023-03-04T11:10:43;1.90;99.90
40340;DHT22;26044;50.864;20.658;2023-03-04T11:16:01;1.90;99.90
40340;DHT22;26044;50.864;20.658;2023-03-04T11:18:41;1.90;99.90
40340;DHT22;26044;50.864;20.658;2023-03-04T11:21:29;1.90;99.90
40340;DHT22;26044;50.864;20.658;2023-03-04T11:24:03;1.90;99.90
40340;DHT22;26044;50.864;20.658;2023-03-04T11:26:44;2.00;99.90
40340;DHT22;26044;50.864;20.658;2023-03-04T11:32:02;2.00;99.90
40340;DHT22;26044;50.864;20.658;2023-03-04T11:40:08;2.10;99.90
40340;DHT22;26044;50.864;20.658;2023-03-04T11:42:44;2.10;99.90
40340;DHT22;26044;50.864;20.658;2023-03-04T11:48:52;2.20;99.90
40340;DHT22;26044;50.864;20.658;2023-03-04T11:51:58;2.20;99.90
40340;DHT22;26044;50.864;20.658;2023-03-04T11:57:17;2.20;99.90
40340;DHT22;26044;50.864;20.658;2023-03-04T11:59:59;2.20;99.90
40340;DHT22;26044;50.864;20.658;2023-03-04T12:09:38;2.30;99.90
40340;DHT22;26044;50.864;20.658;2023-03-04T12:19:36;2.40;99.90
40340;DHT22;26044;50.864;20.658;2023-03-04T12:21:41;2.40;99.90
40340;DHT22;26044;50.864;20.658;2023-03-04T12:26:58;2.40;99.90
40340;DHT22;26044;50.864;20.658;2023-03-04T12:29:46;2.40;99.90
40340;DHT22;26044;50.864;20.658;2023-03-04T12:35:04;2.40;99.90
40340;DHT22;26044;50.864;20.658;2023-03-04T12:40:47;2.40;99.90
40340;DHT22;26044;50.864;20.658;2023-03-04T12:43:26;2.50;99.90
40340;DHT22;26044;50.864;20.658;2023-03-04T12:48:58;2.50;99.90
40340;DHT22;26044;50.864;20.658;2023-03-04T12:54:28;2.50;99.90
40340;DHT22;26044;50.864;20.658;2023-03-04T12:57:24;2.50;99.90
40340;DHT22;26044;50.864;20.658;2023-03-04T13:14:06;2.60;99.90
40340;DHT22;26044;50.864;20.658;2023-03-04T13:16:41;2.60;99.90
40340;DHT22;26044;50.864;20.658;2023-03-04T13:19:44;2.70;99.90
40340;DHT22;26044;50.864;20.658;2023-03-04T13:24:58;2.60;99.90
40340;DHT22;26044;50.864;20.658;2023-03-04T13:38:31;2.50;99.90
40340;DHT22;26044;50.864;20.658;2023-03-04T13:43:55;2.40;99.90
40340;DHT22;26044;50.864;20.658;2023-03-04T13:51:26;2.40;99.90
40340;DHT22;26044;50.864;20.658;2023-03-04T13:56:38;2.40;99.90
40340;DHT22;26044;50.864;20.658;2023-03-04T14:02:18;2.40;99.90
40340;DHT22;26044;50.864;20.658;2023-03-04T14:04:58;2.40;99.90
40340;DHT22;26044;50.864;20.658;2023-03-04T14:07:34;2.40;99.90
40340;DHT22;26044;50.864;20.658;2023-03-04T14:12:45;2.40;99.90
40340;DHT22;26044;50.864;20.658;2023-03-04T14:17:44;2.30;99.90
40340;DHT22;26044;50.864;20.658;2023-03-04T14:20:33;2.40;99.90
40340;DHT22;26044;50.864;20.658;2023-03-04T14:23:04;2.30;99.90
40340;DHT22;26044;50.864;20.658;2023-03-04T14:25:33;2.40;99.90
40340;DHT22;26044;50.864;20.658;2023-03-04T14:28:14;2.30;99.90
40340;DHT22;26044;50.864;20.658;2023-03-04T14:30:51;2.40;99.90
40340;DHT22;26044;50.864;20.658;2023-03-04T14:33:27;2.40;99.90
40340;DHT22;26044;50.864;20.658;2023-03-04T14:35:57;2.50;99.90
40340;DHT22;26044;50.864;20.658;2023-03-04T14:38:27;2.40;99.90
40340;DHT22;26044;50.864;20.658;2023-03-04T14:41:07;2.40;99.90
40340;DHT22;26044;50.864;20.658;2023-03-04T14:43:41;2.40;99.90
40340;DHT22;26044;50.864;20.658;2023-03-04T14:46:14;2.40;99.90
40340;DHT22;26044;50.864;20.658;2023-03-04T14:48:50;2.40;99.90
40340;DHT22;26044;50.864;20.658;2023-03-04T14:51:28;2.50;99.90
40340;DHT22;26044;50.864;20.658;2023-03-04T14:53:56;2.50;99.90
40340;DHT22;26044;50.864;20.658;2023-03-04T14:56:27;2.50;99.90
40340;DHT22;26044;50.864;20.658;2023-03-04T14:58:57;2.60;99.90
40340;DHT22;26044;50.864;20.658;2023-03-04T15:01:42;2.60;99.90
40340;DHT22;26044;50.864;20.658;2023-03-04T15:04:12;2.50;99.90
40340;DHT22;26044;50.864;20.658;2023-03-04T15:06:52;2.60;99.90
40340;DHT22;26044;50.864;20.658;2023-03-04T15:09:24;2.70;99.90
40340;DHT22;26044;50.864;20.658;2023-03-04T15:12:02;2.70;99.90
40340;DHT22;26044;50.864;20.658;2023-03-04T15:14:47;2.70;99.90
40340;DHT22;26044;50.864;20.658;2023-03-04T15:17:39;2.70;99.90
40340;DHT22;26044;50.864;20.658;2023-03-04T15:22:55;2.80;99.90
40340;DHT22;26044;50.864;20.658;2023-03-04T15:25:22;2.80;99.90
40340;DHT22;26044;50.864;20.658;2023-03-04T15:27:49;2.80;99.90
40340;DHT22;26044;50.864;20.658;2023-03-04T15:30:25;2.80;99.90
40340;DHT22;26044;50.864;20.658;2023-03-04T15:32:57;2.80;99.90
40340;DHT22;26044;50.864;20.658;2023-03-04T15:35:27;2.80;99.90
40340;DHT22;26044;50.864;20.658;2023-03-04T15:37:56;2.80;99.90
40340;DHT22;26044;50.864;20.658;2023-03-04T15:40:30;2.80;99.90
40340;DHT22;26044;50.864;20.658;2023-03-04T15:43:00;2.80;99.90
40340;DHT22;26044;50.864;20.658;2023-03-04T15:45:29;2.80;99.90
40340;DHT22;26044;50.864;20.658;2023-03-04T15:47:58;2.80;99.90
40340;DHT22;26044;50.864;20.658;2023-03-04T15:50:28;2.80;99.90
40340;DHT22;26044;50.864;20.658;2023-03-04T15:52:57;2.80;99.90
40340;DHT22;26044;50.864;20.658;2023-03-04T15:55:25;2.80;99.90
40340;DHT22;26044;50.864;20.658;2023-03-04T15:57:56;2.90;99.90
40340;DHT22;26044;50.864;20.658;2023-03-04T16:00:24;2.70;99.90
40340;DHT22;26044;50.864;20.658;2023-03-04T16:02:52;2.90;99.90
40340;DHT22;26044;50.864;20.658;2023-03-04T16:05:19;2.80;99.90
40340;DHT22;26044;50.864;20.658;2023-03-04T16:07:49;2.90;99.90
40340;DHT22;26044;50.864;20.658;2023-03-04T16:10:20;2.80;99.90
40340;DHT22;26044;50.864;20.658;2023-03-04T16:12:48;2.80;99.90
40340;DHT22;26044;50.864;20.658;2023-03-04T16:15:18;2.80;99.90
40340;DHT22;26044;50.864;20.658;2023-03-04T16:17:45;2.90;99.90
40340;DHT22;26044;50.864;20.658;2023-03-04T16:20:18;2.90;99.90
40340;DHT22;26044;50.864;20.658;2023-03-04T16:22:48;2.90;99.90
40340;DHT22;26044;50.864;20.658;2023-03-04T16:25:21;2.90;99.90
40340;DHT22;26044;50.864;20.658;2023-03-04T16:27:50;2.90;99.90
40340;DHT22;26044;50.864;20.658;2023-03-04T16:30:23;2.80;99.90
40340;DHT22;26044;50.864;20.658;2023-03-04T16:32:50;2.90;99.90
40340;DHT22;26044;50.864;20.658;2023-03-04T16:35:18;2.90;99.90
40340;DHT22;26044;50.864;20.658;2023-03-04T16:37:46;2.80;99.90
40340;DHT22;26044;50.864;20.658;2023-03-04T16:40:16;2.80;99.90
40340;DHT22;26044;50.864;20.658;2023-03-04T16:42:43;2.80;99.90
40340;DHT22;26044;50.864;20.658;2023-03-04T16:45:22;2.80;99.90
40340;DHT22;26044;50.864;20.658;2023-03-04T16:47:49;2.80;99.90
40340;DHT22;26044;50.864;20.658;2023-03-04T16:50:19;2.80;99.90
40340;DHT22;26044;50.864;20.658;2023-03-04T16:52:47;2.80;99.90
40340;DHT22;26044;50.864;20.658;2023-03-04T16:55:18;2.80;99.90
40340;DHT22;26044;50.864;20.658;2023-03-04T16:57:45;2.80;99.90
40340;DHT22;26044;50.864;20.658;2023-03-04T17:00:14;2.80;99.90
40340;DHT22;26044;50.864;20.658;2023-03-04T17:02:45;2.80;99.90
40340;DHT22;26044;50.864;20.658;2023-03-04T17:05:18;2.80;99.90
40340;DHT22;26044;50.864;20.658;2023-03-04T17:07:45;2.60;99.90
40340;DHT22;26044;50.864;20.658;2023-03-04T17:10:14;2.40;99.90
40340;DHT22;26044;50.864;20.658;2023-03-04T17:12:42;2.30;99.90
40340;DHT22;26044;50.864;20.658;2023-03-04T17:15:11;2.20;99.90
40340;DHT22;26044;50.864;20.658;2023-03-04T17:17:39;2.10;99.90
40340;DHT22;26044;50.864;20.658;2023-03-04T17:20:07;2.10;99.90
40340;DHT22;26044;50.864;20.658;2023-03-04T17:22:34;2.10;99.90
40340;DHT22;26044;50.864;20.658;2023-03-04T17:25:02;2.00;99.90
40340;DHT22;26044;50.864;20.658;2023-03-04T17:27:30;2.00;99.90
40340;DHT22;26044;50.864;20.658;2023-03-04T17:29:57;2.00;99.90
40340;DHT22;26044;50.864;20.658;2023-03-04T17:32:24;2.00;99.90
40340;DHT22;26044;50.864;20.658;2023-03-04T17:34:55;2.00;99.90
40340;DHT22;26044;50.864;20.658;2023-03-04T17:37:22;2.00;99.90
40340;DHT22;26044;50.864;20.658;2023-03-04T17:39:49;2.00;99.90
40340;DHT22;26044;50.864;20.658;2023-03-04T17:42:16;2.00;99.90
40340;DHT22;26044;50.864;20.658;2023-03-04T17:44:44;2.00;99.90